Time;durP1;ratioP1;P1;durP2;ratioP2;P2;SDS_P1;SDS_P2;PMS_P1;PMS_P2;Temp;Humidity;BMP_temperature;BMP_pressure;BME280_temperature;BME280_humidity;BME280_pressure;Samples;Min_cycle;Max_cycle;Signal;HPM_P1;HPM_P2
2022/09/10 00:01:09;;;;;;;;;;;21.20;64.50;;;;;;5075000;28;19931;-68
2022/09/10 00:03:34;;;;;;;;;;;21.20;64.60;;;;;;5092857;28;19973;-68
2022/09/10 00:06:02;;;;;;;;;;;21.20;64.60;;;;;;5075023;28;20348;-68
2022/09/10 00:08:27;;;;;;;;;;;21.20;64.60;;;;;;5092583;28;19942;-68
2022/09/10 00:10:53;;;;;;;;;;;21.20;64.60;;;;;;5074602;28;20007;-68
2022/09/10 00:13:20;;;;;;;;;;;21.20;64.60;;;;;;5074541;28;19926;-68
2022/09/10 00:15:46;;;;;;;;;;;21.20;64.60;;;;;;5074536;28;19920;-68
2022/09/10 00:18:13;;;;;;;;;;;21.20;64.60;;;;;;5091296;28;20287;-68
2022/09/10 00:20:42;;;;;;;;;;;21.20;64.60;;;;;;5092592;28;20304;-73
2022/09/10 00:23:08;;;;;;;;;;;21.20;64.60;;;;;;5074310;28;19920;-68
2022/09/10 00:25:33;;;;;;;;;;;21.20;64.60;;;;;;5074815;28;19928;-68
2022/09/10 00:27:59;;;;;;;;;;;21.20;64.60;;;;;;5092472;28;19974;-68
2022/09/10 00:30:26;;;;;;;;;;;21.20;64.60;;;;;;5092821;28;20269;-68
2022/09/10 00:32:52;;;;;;;;;;;21.10;64.60;;;;;;5074306;28;19920;-68
2022/09/10 00:35:18;;;;;;;;;;;21.10;64.50;;;;;;5074577;28;19969;-68
2022/09/10 00:37:45;;;;;;;;;;;21.20;64.60;;;;;;5070529;28;19967;-68
2022/09/10 00:40:11;;;;;;;;;;;21.10;64.50;;;;;;5070913;28;20377;-68
2022/09/10 00:42:38;;;;;;;;;;;21.10;64.50;;;;;;5070893;28;19955;-68
2022/09/10 00:45:04;;;;;;;;;;;21.10;64.50;;;;;;5071161;28;19921;-68
2022/09/10 00:47:32;;;;;;;;;;;21.10;64.50;;;;;;5071184;28;19920;-68
2022/09/10 00:50:12;;;;;;;;;;;21.10;64.50;;;;;;5071147;28;19928;-68
2022/09/10 00:52:38;;;;;;;;;;;21.10;64.50;;;;;;5070861;28;19927;-68
2022/09/10 00:55:04;;;;;;;;;;;21.10;64.50;;;;;;5072020;28;19921;-68
2022/09/10 00:57:30;;;;;;;;;;;21.10;64.50;;;;;;5070949;28;19929;-68
2022/09/10 00:59:58;;;;;;;;;;;21.10;64.60;;;;;;5070680;28;20291;-68
2022/09/10 01:02:24;;;;;;;;;;;21.10;64.50;;;;;;5071014;28;19920;-68
2022/09/10 01:04:50;;;;;;;;;;;21.10;64.50;;;;;;5071985;28;19920;-68
2022/09/10 01:07:17;;;;;;;;;;;21.10;64.60;;;;;;5071831;28;20402;-68
2022/09/10 01:09:43;;;;;;;;;;;21.00;64.50;;;;;;5070905;28;19920;-68
2022/09/10 01:12:14;;;;;;;;;;;21.10;64.50;;;;;;5071899;28;19967;-68
2022/09/10 01:14:50;;;;;;;;;;;21.10;64.50;;;;;;5070881;28;19921;-68
2022/09/10 01:17:26;;;;;;;;;;;21.10;64.50;;;;;;5070583;28;19924;-68
2022/09/10 01:22:58;;;;;;;;;;;21.10;64.50;;;;;;5110260;27;20379;-67
2022/09/10 01:25:44;;;;;;;;;;;21.00;64.40;;;;;;5108851;28;19959;-68
2022/09/10 01:28:14;;;;;;;;;;;21.10;64.50;;;;;;5108633;28;19920;-68
2022/09/10 01:30:42;;;;;;;;;;;21.10;64.50;;;;;;5108726;28;19924;-68
2022/09/10 01:33:15;;;;;;;;;;;21.10;64.50;;;;;;5109159;28;20029;-68
2022/09/10 01:38:25;;;;;;;;;;;21.10;64.50;;;;;;5110304;27;19912;-68
2022/09/10 01:40:52;;;;;;;;;;;21.00;64.40;;;;;;5108758;28;20134;-68
2022/09/10 01:43:18;;;;;;;;;;;21.00;64.40;;;;;;5109208;28;19923;-68
2022/09/10 01:48:44;;;;;;;;;;;21.10;64.50;;;;;;5089909;28;19941;-68
2022/09/10 02:02:08;;;;;;;;;;;21.10;64.40;;;;;;5089974;28;19913;-68
2022/09/10 02:04:34;;;;;;;;;;;21.00;64.30;;;;;;5088627;28;19926;-68
2022/09/10 02:07:03;;;;;;;;;;;21.00;64.40;;;;;;5088512;28;19958;-68
2022/09/10 02:09:29;;;;;;;;;;;21.00;65.10;;;;;;5088773;28;19920;-68
2022/09/10 02:11:55;;;;;;;;;;;21.00;64.40;;;;;;5088446;28;20281;-68
2022/09/10 02:14:21;;;;;;;;;;;21.00;64.40;;;;;;5089635;28;19928;-68
2022/09/10 02:16:50;;;;;;;;;;;21.00;64.30;;;;;;5088672;28;19963;-68
2022/09/10 02:19:16;;;;;;;;;;;21.00;64.40;;;;;;5088316;28;19921;-68
2022/09/10 02:21:41;;;;;;;;;;;21.00;64.30;;;;;;5088178;28;20023;-68
2022/09/10 02:24:08;;;;;;;;;;;21.00;64.40;;;;;;5088505;28;19924;-68
2022/09/10 02:26:37;;;;;;;;;;;21.00;64.40;;;;;;5089503;28;19920;-68
2022/09/10 02:29:03;;;;;;;;;;;21.00;64.50;;;;;;5089348;28;20261;-68
2022/09/10 02:31:28;;;;;;;;;;;21.00;64.30;;;;;;5088322;28;19972;-68
2022/09/10 02:33:54;;;;;;;;;;;21.00;64.30;;;;;;5088220;28;20364;-68
2022/09/10 02:36:20;;;;;;;;;;;21.00;64.30;;;;;;5089370;28;20147;-68
2022/09/10 02:38:45;;;;;;;;;;;21.00;64.30;;;;;;5089370;28;19927;-68
2022/09/10 02:41:11;;;;;;;;;;;21.00;64.30;;;;;;5104767;28;20367;-68
2022/09/10 02:43:37;;;;;;;;;;;21.00;64.30;;;;;;5088135;28;19943;-68
2022/09/10 02:46:03;;;;;;;;;;;21.00;64.30;;;;;;5087813;28;19928;-68
2022/09/10 02:48:29;;;;;;;;;;;21.00;65.10;;;;;;5088030;28;19920;-68
2022/09/10 02:50:55;;;;;;;;;;;21.00;64.30;;;;;;5087776;28;19921;-68
2022/09/10 02:53:21;;;;;;;;;;;21.00;64.30;;;;;;5089151;28;19920;-68
2022/09/10 02:55:46;;;;;;;;;;;21.00;64.30;;;;;;5088014;28;20299;-68
2022/09/10 02:58:13;;;;;;;;;;;21.00;64.30;;;;;;5087773;28;19921;-68
2022/09/10 03:00:39;;;;;;;;;;;21.00;64.30;;;;;;5087170;28;20368;-68
2022/09/10 03:03:04;;;;;;;;;;;20.90;64.30;;;;;;5088710;28;19927;-68
2022/09/10 03:05:31;;;;;;;;;;;21.00;64.30;;;;;;5088915;28;19964;-68
2022/09/10 03:07:57;;;;;;;;;;;20.90;64.30;;;;;;5087710;28;20015;-68
2022/09/10 03:10:23;;;;;;;;;;;21.00;64.30;;;;;;5088067;28;20355;-68
2022/09/10 03:12:48;;;;;;;;;;;20.90;64.30;;;;;;5077326;28;20269;-68
2022/09/10 03:15:14;;;;;;;;;;;20.90;64.30;;;;;;5073788;28;19920;-68
2022/09/10 03:17:40;;;;;;;;;;;20.90;64.30;;;;;;5074993;28;19968;-67
2022/09/10 03:20:06;;;;;;;;;;;21.00;64.30;;;;;;5073882;28;19924;-68
2022/09/10 03:22:31;;;;;;;;;;;21.00;64.30;;;;;;5073628;28;19920;-68
2022/09/10 03:24:57;;;;;;;;;;;20.90;64.30;;;;;;5074901;28;19924;-68
2022/09/10 03:27:24;;;;;;;;;;;21.00;64.30;;;;;;5073593;28;20273;-68
2022/09/10 03:29:50;;;;;;;;;;;20.90;64.30;;;;;;5073341;28;20407;-68
2022/09/10 03:32:16;;;;;;;;;;;20.90;64.30;;;;;;5073452;28;19968;-68
2022/09/10 03:34:42;;;;;;;;;;;20.90;64.30;;;;;;5073322;28;19920;-68
2022/09/10 03:37:08;;;;;;;;;;;20.90;64.30;;;;;;5073749;28;19943;-68
2022/09/10 03:39:34;;;;;;;;;;;20.90;64.30;;;;;;5074610;28;20356;-68
2022/09/10 03:41:59;;;;;;;;;;;21.00;64.30;;;;;;5074495;28;19924;-68
2022/09/10 03:44:25;;;;;;;;;;;20.90;64.30;;;;;;5074488;28;20280;-68
2022/09/10 03:46:50;;;;;;;;;;;20.90;64.20;;;;;;5073138;28;19920;-67
2022/09/10 03:49:16;;;;;;;;;;;20.90;64.30;;;;;;5073430;28;19924;-67
2022/09/10 03:51:41;;;;;;;;;;;20.90;64.30;;;;;;5074546;28;19963;-67
2022/09/10 03:54:07;;;;;;;;;;;20.90;64.30;;;;;;5072997;28;19925;-68
2022/09/10 03:56:33;;;;;;;;;;;20.90;64.20;;;;;;5074211;28;20007;-68
2022/09/10 03:58:59;;;;;;;;;;;20.90;64.30;;;;;;5074151;28;19966;-68
2022/09/10 04:01:24;;;;;;;;;;;20.90;64.30;;;;;;5072565;28;19986;-68
2022/09/10 04:03:53;;;;;;;;;;;20.90;64.30;;;;;;5074303;28;19924;-68
2022/09/10 04:06:18;;;;;;;;;;;20.90;64.20;;;;;;5072711;28;19966;-68
2022/09/10 04:08:47;;;;;;;;;;;20.90;64.30;;;;;;5073044;28;19921;-67
2022/09/10 04:11:12;;;;;;;;;;;20.90;64.30;;;;;;5073109;28;20272;-68
2022/09/10 04:13:38;;;;;;;;;;;20.90;64.30;;;;;;5072947;28;19921;-68
2022/09/10 04:16:04;;;;;;;;;;;20.90;64.30;;;;;;5073810;28;19920;-67
2022/09/10 04:18:33;;;;;;;;;;;20.90;64.30;;;;;;5072530;28;20003;-68
2022/09/10 04:20:59;;;;;;;;;;;20.90;64.30;;;;;;5073822;28;19924;-68
2022/09/10 04:23:24;;;;;;;;;;;20.90;64.30;;;;;;5071966;28;19920;-67
2022/09/10 04:25:51;;;;;;;;;;;20.90;64.30;;;;;;5089396;28;20356;-68
2022/09/10 04:28:16;;;;;;;;;;;20.90;64.30;;;;;;5072620;28;20032;-68
2022/09/10 04:30:45;;;;;;;;;;;20.90;64.30;;;;;;5072070;28;19967;-67
2022/09/10 04:33:11;;;;;;;;;;;20.90;64.30;;;;;;5073960;28;19930;-68
2022/09/10 04:35:38;;;;;;;;;;;20.90;64.30;;;;;;5073440;28;19920;-68
2022/09/10 04:38:04;;;;;;;;;;;20.90;64.20;;;;;;5073544;28;19920;-67
2022/09/10 04:40:29;;;;;;;;;;;20.90;64.30;;;;;;5073287;28;19925;-67
2022/09/10 04:42:55;;;;;;;;;;;20.90;64.30;;;;;;5073349;28;19944;-68
2022/09/10 04:45:21;;;;;;;;;;;20.90;64.30;;;;;;5072247;28;19963;-68
2022/09/10 04:47:46;;;;;;;;;;;20.80;64.30;;;;;;5071168;28;19966;-67
2022/09/10 04:50:14;;;;;;;;;;;20.90;64.30;;;;;;5073020;28;19920;-67
2022/09/10 04:52:40;;;;;;;;;;;20.90;64.30;;;;;;5071859;28;19920;-68
2022/09/10 04:55:06;;;;;;;;;;;20.80;64.20;;;;;;5073188;28;19966;-67
2022/09/10 04:57:31;;;;;;;;;;;20.90;64.30;;;;;;5072179;28;20011;-67
2022/09/10 05:00:00;;;;;;;;;;;20.80;64.30;;;;;;5074193;28;21989;-68
2022/09/10 05:02:25;;;;;;;;;;;20.80;64.20;;;;;;5074969;28;19924;-68
2022/09/10 05:04:51;;;;;;;;;;;20.80;64.20;;;;;;5075332;28;20019;-68
2022/09/10 05:07:16;;;;;;;;;;;20.80;64.30;;;;;;5074997;28;19922;-71
2022/09/10 05:09:42;;;;;;;;;;;20.80;64.20;;;;;;5075261;28;20003;-67
2022/09/10 05:12:07;;;;;;;;;;;20.80;64.30;;;;;;5093289;28;20367;-68
2022/09/10 05:14:33;;;;;;;;;;;20.80;64.30;;;;;;5075232;28;20154;-67
2022/09/10 05:16:59;;;;;;;;;;;20.80;64.30;;;;;;5075055;28;19927;-67
2022/09/10 05:19:24;;;;;;;;;;;20.80;64.20;;;;;;5092997;28;20395;-67
2022/09/10 05:21:50;;;;;;;;;;;20.80;64.30;;;;;;5092977;28;19920;-67
2022/09/10 05:24:15;;;;;;;;;;;20.80;64.30;;;;;;5074815;28;19931;-67
2022/09/10 05:26:41;;;;;;;;;;;20.80;65.00;;;;;;5074690;28;19920;-67
2022/09/10 05:29:07;;;;;;;;;;;20.80;64.30;;;;;;5074937;28;19920;-67
2022/09/10 05:31:34;;;;;;;;;;;20.80;64.30;;;;;;5092723;28;20120;-67
2022/09/10 05:34:00;;;;;;;;;;;20.80;64.30;;;;;;5092612;28;19920;-68
2022/09/10 05:36:26;;;;;;;;;;;20.80;64.30;;;;;;5074345;28;19926;-67
2022/09/10 05:38:52;;;;;;;;;;;20.80;64.30;;;;;;5074738;28;19923;-67
2022/09/10 05:41:18;;;;;;;;;;;20.80;64.30;;;;;;5092658;28;19924;-67
2022/09/10 05:43:43;;;;;;;;;;;20.80;64.30;;;;;;5092563;28;19946;-68
2022/09/10 05:46:09;;;;;;;;;;;20.80;64.30;;;;;;5074579;28;19927;-68
2022/09/10 05:48:34;;;;;;;;;;;20.80;64.30;;;;;;5091113;28;19920;-68
2022/09/10 05:51:00;;;;;;;;;;;20.80;64.30;;;;;;5091567;28;19920;-67
2022/09/10 05:53:25;;;;;;;;;;;20.80;64.30;;;;;;5074268;28;20388;-68
2022/09/10 05:55:51;;;;;;;;;;;20.80;64.30;;;;;;5074634;28;19935;-67
2022/09/10 05:58:16;;;;;;;;;;;20.80;64.30;;;;;;5092561;28;19920;-67
2022/09/10 06:00:42;;;;;;;;;;;20.80;64.30;;;;;;5074105;28;20173;-67
2022/09/10 06:03:09;;;;;;;;;;;20.80;64.30;;;;;;5074429;28;19924;-67
2022/09/10 06:05:34;;;;;;;;;;;20.80;64.30;;;;;;5092291;28;19921;-67
2022/09/10 06:08:00;;;;;;;;;;;20.80;64.30;;;;;;5091473;28;20371;-67
2022/09/10 06:10:26;;;;;;;;;;;20.80;64.30;;;;;;5091300;28;20448;-67
2022/09/10 06:12:51;;;;;;;;;;;20.80;64.30;;;;;;5091063;28;20276;-67
2022/09/10 06:15:18;;;;;;;;;;;20.80;64.20;;;;;;5091309;28;19924;-67
2022/09/10 06:17:44;;;;;;;;;;;20.80;64.20;;;;;;5091377;28;19920;-67
2022/09/10 06:20:09;;;;;;;;;;;20.80;64.30;;;;;;5073862;28;20272;-67
2022/09/10 06:22:35;;;;;;;;;;;20.80;64.30;;;;;;5074055;28;20002;-68
2022/09/10 06:25:00;;;;;;;;;;;20.80;64.30;;;;;;5090860;28;19920;-67
2022/09/10 06:27:26;;;;;;;;;;;20.80;64.30;;;;;;5074243;28;20127;-67
2022/09/10 06:29:51;;;;;;;;;;;20.80;64.30;;;;;;5073928;28;19969;-67
2022/09/10 06:32:17;;;;;;;;;;;20.80;64.20;;;;;;5073944;28;19947;-67
2022/09/10 06:34:42;;;;;;;;;;;20.80;64.30;;;;;;5073926;28;19921;-67
2022/09/10 06:37:08;;;;;;;;;;;20.80;64.20;;;;;;5073967;28;20061;-67
2022/09/10 06:39:35;;;;;;;;;;;20.80;64.30;;;;;;5092010;28;19943;-67
2022/09/10 06:42:00;;;;;;;;;;;20.80;64.30;;;;;;5092077;28;19924;-67
2022/09/10 06:44:28;;;;;;;;;;;20.80;64.30;;;;;;5073929;28;20364;-67
2022/09/10 06:46:53;;;;;;;;;;;20.80;64.30;;;;;;5074523;28;19920;-68
2022/09/10 06:49:20;;;;;;;;;;;20.80;64.20;;;;;;5077560;28;19927;-67
2022/09/10 06:51:46;;;;;;;;;;;20.80;64.30;;;;;;5096038;28;20364;-67
2022/09/10 06:54:15;;;;;;;;;;;20.80;64.20;;;;;;5077495;28;20383;-67
2022/09/10 06:56:41;;;;;;;;;;;20.80;64.20;;;;;;5095568;28;19920;-67
2022/09/10 06:59:07;;;;;;;;;;;20.80;64.20;;;;;;5095766;28;19946;-67
2022/09/10 07:01:33;;;;;;;;;;;20.80;64.30;;;;;;5095100;28;19924;-67
2022/09/10 07:03:59;;;;;;;;;;;20.80;64.20;;;;;;5095484;28;19966;-67
2022/09/10 07:06:26;;;;;;;;;;;20.80;64.30;;;;;;5077175;28;20384;-67
2022/09/10 07:08:55;;;;;;;;;;;20.80;64.30;;;;;;5095386;28;19931;-67
2022/09/10 07:11:21;;;;;;;;;;;20.80;64.30;;;;;;5077528;28;19924;-67
2022/09/10 07:13:49;;;;;;;;;;;20.80;64.20;;;;;;5076455;28;19926;-67
2022/09/10 07:16:17;;;;;;;;;;;20.80;64.30;;;;;;5077265;28;19920;-67
2022/09/10 07:18:42;;;;;;;;;;;20.80;64.30;;;;;;5077088;28;19927;-67
2022/09/10 07:21:09;;;;;;;;;;;20.80;64.30;;;;;;5076981;28;19924;-67
2022/09/10 07:23:35;;;;;;;;;;;20.80;64.30;;;;;;5076986;28;20402;-68
2022/09/10 07:26:10;;;;;;;;;;;20.80;64.30;;;;;;5095195;28;20082;-67
2022/09/10 07:28:36;;;;;;;;;;;20.80;64.30;;;;;;5077175;28;19920;-67
2022/09/10 07:31:10;;;;;;;;;;;20.80;64.30;;;;;;5094891;28;19956;-67
2022/09/10 07:33:35;;;;;;;;;;;20.80;64.30;;;;;;5095335;28;20303;-67
2022/09/10 07:36:01;;;;;;;;;;;20.80;64.30;;;;;;5076724;28;19928;-67
2022/09/10 07:38:27;;;;;;;;;;;20.80;64.30;;;;;;5094899;28;19931;-67
2022/09/10 07:40:53;;;;;;;;;;;20.80;64.40;;;;;;5095014;28;20333;-67
2022/09/10 07:43:18;;;;;;;;;;;20.80;64.30;;;;;;5076607;28;19946;-68
2022/09/10 07:45:44;;;;;;;;;;;20.80;64.30;;;;;;5076608;28;19959;-67
2022/09/10 07:48:10;;;;;;;;;;;20.80;64.30;;;;;;5094507;28;19927;-67
2022/09/10 07:50:37;;;;;;;;;;;20.80;64.30;;;;;;5094933;28;19920;-67
2022/09/10 07:53:02;;;;;;;;;;;20.80;64.30;;;;;;5094641;28;19962;-67
2022/09/10 07:55:29;;;;;;;;;;;20.80;64.30;;;;;;5076393;28;19920;-67
2022/09/10 07:57:54;;;;;;;;;;;20.80;64.30;;;;;;5076165;28;20011;-67
2022/09/10 08:00:20;;;;;;;;;;;20.80;64.30;;;;;;5094203;28;20018;-67
2022/09/10 08:02:45;;;;;;;;;;;20.80;64.30;;;;;;5094372;28;19970;-67
2022/09/10 08:05:12;;;;;;;;;;;20.80;64.30;;;;;;5094252;28;19920;-67
2022/09/10 08:07:38;;;;;;;;;;;20.80;64.30;;;;;;5076467;28;19924;-67
2022/09/10 08:10:06;;;;;;;;;;;20.80;64.30;;;;;;5094361;28;20006;-67
2022/09/10 08:12:32;;;;;;;;;;;20.80;64.30;;;;;;5094156;28;20276;-67
2022/09/10 08:14:58;;;;;;;;;;;20.80;64.30;;;;;;5094147;28;19977;-67
2022/09/10 08:17:24;;;;;;;;;;;20.80;64.30;;;;;;5076263;28;20346;-67
2022/09/10 08:19:49;;;;;;;;;;;20.80;64.20;;;;;;5093954;28;20007;-67
2022/09/10 08:22:15;;;;;;;;;;;20.80;64.20;;;;;;5094076;28;19920;-67
2022/09/10 08:24:41;;;;;;;;;;;20.90;64.30;;;;;;5093947;28;19973;-67
2022/09/10 08:27:06;;;;;;;;;;;20.80;64.30;;;;;;5094017;28;19981;-67
2022/09/10 08:29:33;;;;;;;;;;;20.80;64.30;;;;;;5093092;28;20456;-67
2022/09/10 08:31:59;;;;;;;;;;;20.80;64.30;;;;;;5075991;28;19999;-67
2022/09/10 08:34:25;;;;;;;;;;;20.90;64.40;;;;;;5075818;28;19966;-67
2022/09/10 08:36:51;;;;;;;;;;;20.80;64.30;;;;;;5093713;28;19920;-67
2022/09/10 08:39:17;;;;;;;;;;;20.90;64.40;;;;;;5075478;28;19966;-67
2022/09/10 08:41:47;;;;;;;;;;;20.80;64.30;;;;;;5075424;28;19925;-67
2022/09/10 08:47:04;;;;;;;;;;;20.90;64.40;;;;;;5089853;28;19938;-67
2022/09/10 08:49:50;;;;;;;;;;;20.90;64.40;;;;;;5088826;28;19974;-67
2022/09/10 08:52:36;;;;;;;;;;;20.80;65.10;;;;;;5089754;28;19946;-67
2022/09/10 08:57:49;;;;;;;;;;;20.80;64.30;;;;;;5110314;27;20397;-67
2022/09/10 09:00:17;;;;;;;;;;;20.90;64.40;;;;;;5109206;28;19920;-67
2022/09/10 09:02:50;;;;;;;;;;;20.90;64.40;;;;;;5108928;28;20399;-67
2022/09/10 09:05:18;;;;;;;;;;;20.90;64.30;;;;;;5109121;28;20286;-67
2022/09/10 09:07:43;;;;;;;;;;;20.90;64.40;;;;;;5110174;28;20466;-67
2022/09/10 09:13:15;;;;;;;;;;;20.90;64.30;;;;;;5089819;28;19913;-67
2022/09/10 09:15:48;;;;;;;;;;;20.90;64.30;;;;;;5088543;28;19920;-67
2022/09/10 09:21:14;;;;;;;;;;;20.90;64.30;;;;;;5089853;28;20275;-67
2022/09/10 09:23:48;;;;;;;;;;;20.90;64.20;;;;;;5089803;28;19920;-67
2022/09/10 09:26:15;;;;;;;;;;;21.00;64.40;;;;;;5088877;28;19921;-67
2022/09/10 09:28:51;;;;;;;;;;;21.00;64.30;;;;;;5088554;28;19920;-67
2022/09/10 09:31:32;;;;;;;;;;;21.00;64.10;;;;;;5088539;28;19970;-67
2022/09/10 09:34:00;;;;;;;;;;;21.00;64.20;;;;;;5088406;28;19921;-67
2022/09/10 09:36:30;;;;;;;;;;;21.00;64.20;;;;;;5089548;28;20038;-67
2022/09/10 09:38:55;;;;;;;;;;;21.00;64.10;;;;;;5088201;28;19924;-67
2022/09/10 09:44:28;;;;;;;;;;;21.00;64.10;;;;;;5089929;28;19938;-67
2022/09/10 09:46:55;;;;;;;;;;;21.00;64.10;;;;;;5088362;28;19960;-67
2022/09/10 09:49:21;;;;;;;;;;;21.00;64.10;;;;;;5088756;28;19924;-67
2022/09/10 09:51:47;;;;;;;;;;;21.00;64.10;;;;;;5088517;28;19920;-67
2022/09/10 09:54:16;;;;;;;;;;;21.00;64.10;;;;;;5088809;28;19982;-67
2022/09/10 09:56:44;;;;;;;;;;;21.00;64.10;;;;;;5088331;28;19920;-67
2022/09/10 10:02:10;;;;;;;;;;;21.00;64.00;;;;;;5089926;28;19918;-67
2022/09/10 10:04:36;;;;;;;;;;;21.00;64.00;;;;;;5088599;28;19934;-67
2022/09/10 10:07:03;;;;;;;;;;;21.00;64.00;;;;;;5088467;28;19920;-67
2022/09/10 10:12:25;;;;;;;;;;;21.00;63.90;;;;;;5089897;28;19934;-67
2022/09/10 10:14:51;;;;;;;;;;;21.10;64.00;;;;;;5089955;28;19924;-67
2022/09/10 10:17:24;;;;;;;;;;;21.10;64.00;;;;;;5089745;28;20394;-67
2022/09/10 10:20:10;;;;;;;;;;;21.10;63.90;;;;;;5088823;28;20163;-66
2022/09/10 10:22:36;;;;;;;;;;;21.10;63.70;;;;;;5088427;28;20011;-66
2022/09/10 10:25:03;;;;;;;;;;;21.20;63.60;;;;;;5089770;28;19921;-67
2022/09/10 10:27:31;;;;;;;;;;;21.20;63.60;;;;;;5088627;28;20007;-67
2022/09/10 10:29:59;;;;;;;;;;;21.20;63.50;;;;;;5088145;28;19928;-67
2022/09/10 10:32:30;;;;;;;;;;;21.30;63.40;;;;;;5089616;28;19926;-67
2022/09/10 10:35:17;;;;;;;;;;;21.30;63.40;;;;;;5088564;28;20033;-67
2022/09/10 10:37:49;;;;;;;;;;;21.30;63.40;;;;;;5087952;28;19920;-67
2022/09/10 10:40:23;;;;;;;;;;;21.30;63.30;;;;;;5089452;28;19948;-67
2022/09/10 10:42:58;;;;;;;;;;;21.30;63.10;;;;;;5088308;28;19921;-66
2022/09/10 10:45:43;;;;;;;;;;;21.30;63.00;;;;;;5087961;28;19921;-67
2022/09/10 10:51:08;;;;;;;;;;;21.40;63.10;;;;;;5089918;28;19912;-66
2022/09/10 10:56:23;;;;;;;;;;;21.40;63.00;;;;;;5089968;28;19913;-67
2022/09/10 10:59:08;;;;;;;;;;;21.40;63.00;;;;;;5089788;28;19920;-66
2022/09/10 11:01:36;;;;;;;;;;;21.40;63.00;;;;;;5088290;28;19931;-67
2022/09/10 11:04:18;;;;;;;;;;;21.40;63.70;;;;;;5088461;28;19920;-67
2022/09/10 11:06:46;;;;;;;;;;;21.40;63.00;;;;;;5088443;28;19946;-67
2022/09/10 11:09:20;;;;;;;;;;;21.40;62.90;;;;;;5088356;28;19920;-66
2022/09/10 11:14:47;;;;;;;;;;;21.40;62.90;;;;;;5089744;28;19913;-66
2022/09/10 11:17:18;;;;;;;;;;;21.40;62.90;;;;;;5088435;28;19951;-66
2022/09/10 11:19:50;;;;;;;;;;;21.40;62.90;;;;;;5071487;28;19927;-66
2022/09/10 11:22:21;;;;;;;;;;;21.40;62.90;;;;;;5088700;28;19921;-66
2022/09/10 11:27:29;;;;;;;;;;;21.40;62.90;;;;;;5089935;28;19913;-66
2022/09/10 11:30:01;;;;;;;;;;;21.50;62.90;;;;;;5089788;28;19920;-66
2022/09/10 11:32:31;;;;;;;;;;;21.40;62.90;;;;;;5088833;28;19927;-67
2022/09/10 11:38:00;;;;;;;;;;;21.40;63.00;;;;;;5089998;28;19912;-66
2022/09/10 11:40:31;;;;;;;;;;;21.40;62.90;;;;;;5088839;28;19920;-66
2022/09/10 11:43:01;;;;;;;;;;;21.40;63.00;;;;;;5088635;28;19924;-66
2022/09/10 11:45:32;;;;;;;;;;;21.40;62.90;;;;;;5089676;28;20290;-66
2022/09/10 11:48:00;;;;;;;;;;;21.40;63.00;;;;;;5088460;28;19924;-66
2022/09/10 11:50:29;;;;;;;;;;;21.40;63.00;;;;;;5105616;28;19924;-66
2022/09/10 11:52:57;;;;;;;;;;;21.40;63.00;;;;;;5088401;28;19965;-66
2022/09/10 11:55:28;;;;;;;;;;;21.40;62.90;;;;;;5088291;28;20204;-66
2022/09/10 12:00:44;;;;;;;;;;;21.40;63.10;;;;;;5089887;28;19912;-66
2022/09/10 12:08:54;;;;;;;;;;;21.50;63.00;;;;;;5089910;28;19920;-66
2022/09/10 12:11:26;;;;;;;;;;;21.50;63.00;;;;;;5088309;28;19974;-66
2022/09/10 12:13:51;;;;;;;;;;;21.40;63.00;;;;;;5088631;28;19921;-66
2022/09/10 12:16:21;;;;;;;;;;;21.50;62.90;;;;;;5089796;28;19966;-66
2022/09/10 12:18:49;;;;;;;;;;;21.50;62.90;;;;;;5088504;28;19920;-66
2022/09/10 12:21:20;;;;;;;;;;;21.50;62.90;;;;;;5088213;28;19952;-66
2022/09/10 12:23:46;;;;;;;;;;;21.50;62.90;;;;;;5088601;28;19974;-66
2022/09/10 12:26:16;;;;;;;;;;;21.50;62.90;;;;;;5088556;28;20303;-66
2022/09/10 12:31:23;;;;;;;;;;;21.50;62.90;;;;;;5089831;28;19919;-66
2022/09/10 12:39:25;;;;;;;;;;;21.30;62.90;;;;;;5089913;28;19913;-66
2022/09/10 12:55:32;;;;;;;;;;;21.50;62.80;;;;;;5127586;27;1867144;-66
2022/09/10 12:58:18;;;;;;;;;;;21.40;62.80;;;;;;5174383;27;19919;-66
2022/09/10 13:00:48;;;;;;;;;;;21.40;62.90;;;;;;5174117;27;19919;-66
2022/09/10 13:03:15;;;;;;;;;;;21.50;62.90;;;;;;5174181;27;19919;-66
2022/09/10 13:08:26;;;;;;;;;;;21.50;62.80;;;;;;5089882;28;19912;-66
2022/09/10 13:13:41;;;;;;;;;;;21.40;62.90;;;;;;5089911;28;19913;-66
2022/09/10 13:16:12;;;;;;;;;;;21.50;62.90;;;;;;5088915;28;19943;-66
2022/09/10 13:18:40;;;;;;;;;;;21.40;62.80;;;;;;5088473;28;19927;-66
2022/09/10 13:24:02;;;;;;;;;;;21.40;62.80;;;;;;5090309;28;19919;-66
2022/09/10 13:29:10;;;;;;;;;;;21.50;62.90;;;;;;5089875;28;19913;-66
2022/09/10 13:31:41;;;;;;;;;;;21.50;62.90;;;;;;5088534;28;19927;-66
2022/09/10 13:37:11;;;;;;;;;;;21.50;62.90;;;;;;5127712;27;1861861;-66
2022/09/10 13:42:26;;;;;;;;;;;21.50;62.90;;;;;;5089986;28;19913;-66
2022/09/10 13:47:45;;;;;;;;;;;21.50;62.90;;;;;;5089941;28;19913;-66
2022/09/10 13:50:16;;;;;;;;;;;21.50;63.00;;;;;;5088522;28;19924;-66
2022/09/10 13:52:44;;;;;;;;;;;21.50;63.00;;;;;;5088836;28;19924;-66
2022/09/10 13:55:16;;;;;;;;;;;21.50;63.10;;;;;;5088803;28;20070;-66
2022/09/10 13:57:43;;;;;;;;;;;21.50;63.00;;;;;;5088418;28;19928;-66
2022/09/10 14:08:16;;;;;;;;;;;21.50;63.00;;;;;;5127287;27;1875687;-66
2022/09/10 14:13:54;;;;;;;;;;;21.50;63.10;;;;;;5089909;28;19919;-66
2022/09/10 14:16:24;;;;;;;;;;;21.50;63.00;;;;;;5088855;28;20288;-66
2022/09/10 14:18:52;;;;;;;;;;;21.60;63.10;;;;;;5088504;28;20392;-66
2022/09/10 14:21:25;;;;;;;;;;;21.50;63.00;;;;;;5088700;28;19927;-66
2022/09/10 14:23:51;;;;;;;;;;;21.50;63.00;;;;;;5089888;28;20273;-66
2022/09/10 14:26:23;;;;;;;;;;;21.50;63.10;;;;;;5105704;28;19920;-67
2022/09/10 14:28:49;;;;;;;;;;;21.50;63.10;;;;;;5088356;28;19924;-66
2022/09/10 14:33:57;;;;;;;;;;;21.50;63.10;;;;;;5089900;28;19919;-66
2022/09/10 14:36:32;;;;;;;;;;;21.50;63.00;;;;;;5088566;28;19920;-66
2022/09/10 14:39:14;;;;;;;;;;;21.50;63.00;;;;;;5089997;28;20346;-66
2022/09/10 14:41:40;;;;;;;;;;;21.50;62.90;;;;;;5088441;28;19956;-66
2022/09/10 14:46:58;;;;;;;;;;;21.50;62.90;;;;;;5110251;27;19912;-66
2022/09/10 14:52:04;;;;;;;;;;;21.50;62.90;;;;;;5089895;28;19912;-66
2022/09/10 14:54:32;;;;;;;;;;;21.50;62.90;;;;;;5088501;28;19926;-66
2022/09/10 14:57:00;;;;;;;;;;;21.50;62.90;;;;;;5088467;28;19927;-66
2022/09/10 14:59:34;;;;;;;;;;;21.50;62.90;;;;;;5088088;28;20434;-66
2022/09/10 15:02:00;;;;;;;;;;;21.50;62.90;;;;;;5076643;28;19943;-66
2022/09/10 15:04:26;;;;;;;;;;;21.50;62.80;;;;;;5077792;28;19924;-66
2022/09/10 15:06:53;;;;;;;;;;;21.50;62.80;;;;;;5075543;28;19999;-66
2022/09/10 15:09:19;;;;;;;;;;;21.60;62.90;;;;;;5068116;28;19921;-66
2022/09/10 15:12:04;;;;;;;;;;;21.50;62.80;;;;;;5088189;28;19978;-66
2022/09/10 15:14:30;;;;;;;;;;;21.50;62.80;;;;;;5089402;28;19926;-66
2022/09/10 15:16:56;;;;;;;;;;;21.50;62.80;;;;;;5089393;28;19930;-66
2022/09/10 15:19:21;;;;;;;;;;;21.60;62.90;;;;;;5088221;28;20007;-66
2022/09/10 15:21:48;;;;;;;;;;;21.60;62.90;;;;;;5088298;28;19921;-66
2022/09/10 15:24:14;;;;;;;;;;;21.60;62.80;;;;;;5089346;28;19924;-66
2022/09/10 15:26:41;;;;;;;;;;;21.50;62.70;;;;;;5089217;28;19926;-66
2022/09/10 15:29:07;;;;;;;;;;;21.60;62.80;;;;;;5088317;28;19985;-66
2022/09/10 15:31:34;;;;;;;;;;;21.60;62.80;;;;;;5087789;28;20486;-66
2022/09/10 15:34:00;;;;;;;;;;;21.60;62.80;;;;;;5087916;28;19921;-66
2022/09/10 15:36:27;;;;;;;;;;;21.60;62.70;;;;;;5087783;28;19924;-66
2022/09/10 15:38:53;;;;;;;;;;;21.60;62.80;;;;;;5087151;28;20272;-66
2022/09/10 15:41:18;;;;;;;;;;;21.60;62.80;;;;;;5088879;28;19920;-66
2022/09/10 15:43:44;;;;;;;;;;;21.60;62.80;;;;;;5089076;28;20451;-66
2022/09/10 15:46:11;;;;;;;;;;;21.60;62.80;;;;;;5088035;28;19962;-66
2022/09/10 15:48:36;;;;;;;;;;;21.60;62.80;;;;;;5086485;28;19924;-66
2022/09/10 15:51:03;;;;;;;;;;;21.60;62.80;;;;;;5087134;28;20338;-66
2022/09/10 15:53:31;;;;;;;;;;;21.60;62.70;;;;;;5087646;28;19924;-66
2022/09/10 15:55:59;;;;;;;;;;;21.60;62.80;;;;;;5088791;28;19943;-66
2022/09/10 15:58:24;;;;;;;;;;;21.60;62.90;;;;;;5087220;28;19927;-71
2022/09/10 16:00:50;;;;;;;;;;;21.60;62.90;;;;;;5088701;28;19924;-66
2022/09/10 16:03:15;;;;;;;;;;;21.60;62.80;;;;;;5074456;28;19931;-66
2022/09/10 16:05:41;;;;;;;;;;;21.60;62.90;;;;;;5074075;28;19920;-66
2022/09/10 16:08:06;;;;;;;;;;;21.60;62.90;;;;;;5073898;28;19971;-66
2022/09/10 16:10:32;;;;;;;;;;;21.60;62.90;;;;;;5073504;28;20337;-66
2022/09/10 16:12:57;;;;;;;;;;;21.60;62.80;;;;;;5073881;28;19942;-66
2022/09/10 16:15:23;;;;;;;;;;;21.60;63.20;;;;;;5073636;28;19958;-66
2022/09/10 16:17:49;;;;;;;;;;;21.60;62.90;;;;;;5073583;28;19959;-71
2022/09/10 16:20:14;;;;;;;;;;;21.60;63.10;;;;;;5073574;28;20339;-66
2022/09/10 16:22:40;;;;;;;;;;;21.60;63.00;;;;;;5073358;28;19921;-66